Time;durP1;ratioP1;P1;durP2;ratioP2;P2;SDS_P1;SDS_P2;PMS_P1;PMS_P2;Temp;Humidity;BMP_temperature;BMP_pressure;BME280_temperature;BME280_humidity;BME280_pressure;Samples;Min_cycle;Max_cycle;Signal;HPM_P1;HPM_P2
2022/01/25 00:26:34;;;;;;;27.60;17.90;;;;;;;0.02;68.52;100584.75;5045815;28;20753;-65
2022/01/25 00:30:44;;;;;;;21.40;14.27;;;;;;;1.62;64.43;100622.06;5053259;28;20201;-65
2022/01/25 00:34:25;;;;;;;17.10;11.70;;;;;;;2.45;61.10;100580.06;5048730;28;20190;-65
2022/01/25 00:38:05;;;;;;;19.93;11.77;;;;;;;1.91;63.43;100610.63;5050920;28;20179;-65
2022/01/25 00:41:46;;;;;;;16.43;12.37;;;;;;;2.38;61.03;100592.78;5036651;28;20182;-65
2022/01/25 00:45:29;;;;;;;17.57;12.67;;;;;;;2.36;60.74;100592.03;5056270;28;20209;-65
2022/01/25 00:49:14;;;;;;;22.40;13.10;;;;;;;2.96;59.28;100580.22;5052232;28;20186;-65
2022/01/25 00:56:36;;;;;;;20.13;13.17;;;;;;;2.86;59.53;100581.78;5069516;28;20185;-65
2022/01/25 01:00:17;;;;;;;21.20;14.10;;;;;;;2.13;60.84;100570.63;5058519;28;20234;-64
2022/01/25 01:03:59;;;;;;;19.40;14.00;;;;;;;1.60;62.24;100595.00;5068365;28;20208;-65
2022/01/25 01:07:41;;;;;;;26.63;14.07;;;;;;;2.34;60.25;100596.53;5069385;28;20876;-65
2022/01/25 01:11:27;;;;;;;22.33;15.07;;;;;;;2.70;59.66;100600.41;5063602;28;20204;-65
2022/01/25 01:15:32;;;;;;;21.37;14.23;;;;;;;2.75;59.79;100581.63;5041504;28;20596;-64
2022/01/25 01:31:28;;;;;;;21.27;14.03;;;;;;;2.80;60.08;100590.94;5059299;28;20199;-64
2022/01/25 01:43:18;;;;;;;23.07;14.63;;;;;;;3.08;59.33;100590.91;5052676;28;20186;-65
2022/01/25 01:50:43;;;;;;;21.00;16.40;;;;;;;2.84;59.77;100599.50;5041271;28;20193;-64
2022/01/25 01:54:24;;;;;;;25.97;16.57;;;;;;;2.63;60.56;100623.66;5067252;28;20178;-64
2022/01/25 01:58:05;;;;;;;20.80;15.00;;;;;;;2.60;60.42;100615.94;5054198;28;21089;-65
2022/01/25 02:01:46;;;;;;;23.73;15.37;;;;;;;0.41;67.56;100639.44;5045168;28;20188;-65
2022/01/25 02:04:37;;;;;;;21.93;16.67;;;;;;;-0.33;68.41;100583.06;5064666;28;20205;-65
2022/01/25 02:07:04;;;;;;;20.87;15.27;;;;;;;1.27;64.21;100683.66;5053319;28;20740;-65
2022/01/25 02:09:32;;;;;;;20.40;15.07;;;;;;;0.79;64.94;100644.34;5061013;28;20230;-65
2022/01/25 02:12:00;;;;;;;23.07;15.03;;;;;;;1.57;62.66;100656.56;5045803;28;20236;-65
2022/01/25 02:14:28;;;;;;;20.00;13.30;;;;;;;1.67;61.77;100644.53;5054766;28;20208;-65
2022/01/25 02:22:57;;;;;;;26.87;18.47;;;;;;;-0.44;68.79;100571.47;5061700;28;20229;-65
2022/01/25 02:25:24;;;;;;;22.57;14.80;;;;;;;-0.05;67.67;100631.47;5068191;28;20217;-64
2022/01/25 02:28:18;;;;;;;21.33;15.23;;;;;;;-0.78;69.13;100566.19;5069137;28;20184;-65
2022/01/25 02:31:12;;;;;;;21.80;14.10;;;;;;;-0.43;68.88;100631.69;5063585;28;20184;-64
2022/01/25 02:34:04;;;;;;;21.47;14.83;;;;;;;0.01;67.66;100651.25;5066263;28;20185;-64
2022/01/25 02:36:56;;;;;;;19.60;13.87;;;;;;;-0.16;67.83;100624.13;5052513;28;20189;-65
2022/01/25 02:39:48;;;;;;;19.77;14.33;;;;;;;-0.22;67.97;100613.13;5053707;28;20745;-64
2022/01/25 02:42:38;;;;;;;20.17;14.40;;;;;;;1.47;63.97;100647.53;5048185;28;20177;-65
2022/01/25 02:45:35;;;;;;;21.70;16.07;;;;;;;-0.16;68.39;100623.31;5059413;28;20212;-65
2022/01/25 02:48:32;;;;;;;19.67;13.53;;;;;;;-0.06;65.48;100595.66;5057446;28;20182;-64
2022/01/25 02:51:33;;;;;;;18.73;13.43;;;;;;;-0.87;68.90;100558.81;5055148;28;20188;-64
2022/01/25 02:54:25;;;;;;;18.23;13.37;;;;;;;1.70;61.66;100615.44;5054448;28;20594;-64
2022/01/25 02:57:16;;;;;;;22.00;14.97;;;;;;;1.84;60.48;100590.91;5056663;28;20188;-64
2022/01/25 03:00:08;;;;;;;20.47;13.77;;;;;;;0.34;64.66;100571.66;5043590;28;20209;-65
2022/01/25 03:02:59;;;;;;;21.20;14.37;;;;;;;1.10;63.64;100632.09;5027032;28;20189;-65
2022/01/25 03:05:51;;;;;;;20.07;15.43;;;;;;;0.52;63.92;100578.50;5051361;28;20182;-64
2022/01/25 03:08:41;;;;;;;18.20;13.83;;;;;;;0.93;64.24;100625.16;5057123;28;20817;-65
2022/01/25 03:11:33;;;;;;;22.03;15.77;;;;;;;0.31;65.45;100601.53;5063722;28;20185;-64
2022/01/25 03:14:27;;;;;;;23.83;16.17;;;;;;;0.79;63.41;100601.47;5053516;28;20168;-65
2022/01/25 03:17:25;;;;;;;22.60;15.80;;;;;;;1.87;60.90;100601.22;5063951;28;20184;-64
2022/01/25 03:20:33;;;;;;;21.67;15.37;;;;;;;2.13;59.51;100578.53;5038850;28;20200;-64
2022/01/25 03:23:23;;;;;;;22.40;17.10;;;;;;;2.34;59.19;100577.28;5059601;28;20177;-64
2022/01/25 03:26:15;;;;;;;25.93;16.67;;;;;;;1.24;62.87;100612.03;5068465;28;20866;-64
2022/01/25 03:29:05;;;;;;;31.83;19.50;;;;;;;2.04;60.34;100596.69;5064413;28;20195;-64
2022/01/25 03:31:57;;;;;;;25.40;16.57;;;;;;;1.83;60.88;100597.09;5068952;28;20189;-64
2022/01/25 03:34:48;;;;;;;25.77;17.30;;;;;;;0.16;66.70;100591.88;5067675;28;20182;-64
2022/01/25 03:37:39;;;;;;;21.40;17.03;;;;;;;1.43;63.35;100619.69;5067376;28;20178;-64
2022/01/25 03:40:30;;;;;;;21.07;16.40;;;;;;;1.99;61.75;100594.38;5059953;28;20507;-64
2022/01/25 03:43:22;;;;;;;25.80;16.83;;;;;;;2.02;61.28;100591.53;5068106;28;20184;-64
2022/01/25 03:46:19;;;;;;;25.43;16.77;;;;;;;2.13;60.94;100593.50;5068636;28;20253;-65
2022/01/25 03:52:27;;;;;;;23.30;16.27;;;;;;;-0.65;68.86;100574.28;5068317;28;20186;-64
2022/01/25 03:55:18;;;;;;;22.57;16.17;;;;;;;-0.87;69.48;100578.00;5068469;28;20177;-64
2022/01/25 03:58:09;;;;;;;24.17;16.37;;;;;;;-0.82;68.91;100590.88;5065980;28;20189;-64
2022/01/25 04:01:00;;;;;;;24.57;16.37;;;;;;;-0.94;69.47;100589.72;5053279;28;20719;-64
2022/01/25 04:03:58;;;;;;;22.73;17.63;;;;;;;-0.91;68.84;100594.81;5067397;28;20196;-64
2022/01/25 04:06:52;;;;;;;24.77;17.17;;;;;;;-0.76;68.69;100614.16;5067095;28;20230;-64
2022/01/25 04:09:43;;;;;;;23.70;16.67;;;;;;;-0.96;68.11;100604.66;5061881;28;20207;-64
2022/01/25 04:12:33;;;;;;;22.60;15.87;;;;;;;-0.38;68.16;100658.50;5050620;28;20755;-64
2022/01/25 04:15:25;;;;;;;24.93;15.77;;;;;;;1.93;59.92;100592.09;5071429;28;20172;-64
2022/01/25 04:18:35;;;;;;;26.03;16.90;;;;;;;2.15;58.77;100565.28;5071877;28;20177;-64
2022/01/25 04:27:50;;;;;;;24.00;16.80;;;;;;;1.97;60.04;100571.69;5006927;28;20189;-64
2022/01/25 04:30:41;;;;;;;28.70;18.77;;;;;;;2.17;59.46;100579.19;5067120;28;20200;-64
2022/01/25 04:33:41;;;;;;;25.43;18.93;;;;;;;1.51;61.83;100610.41;5058591;28;20177;-63
2022/01/25 04:53:49;;;;;;;31.40;20.60;;;;;;;2.05;59.27;100595.75;5061248;28;20236;-65
2022/01/25 04:56:31;;;;;;;30.83;19.80;;;;;;;2.00;59.30;100595.19;5060605;28;20219;-65
2022/01/25 05:01:51;;;;;;;34.50;20.30;;;;;;;1.32;60.90;100588.78;5013391;28;20801;-65
2022/01/25 05:04:25;;;;;;;37.43;19.60;;;;;;;0.91;63.51;100636.69;5063220;28;20255;-66
2022/01/25 05:06:56;;;;;;;58.17;20.33;;;;;;;1.36;61.65;100617.41;5068384;28;20253;-66
2022/01/25 05:09:23;;;;;;;56.07;21.00;;;;;;;0.59;62.98;100574.56;5068353;28;20247;-65
2022/01/25 05:11:50;;;;;;;42.80;19.67;;;;;;;-0.63;67.62;100556.69;5068010;28;20228;-65
2022/01/25 05:14:22;;;;;;;38.63;19.43;;;;;;;0.09;64.69;100630.72;5075968;28;20220;-65
2022/01/25 05:19:35;;;;;;;49.67;21.23;;;;;;;-0.98;69.08;100582.06;5068109;28;20233;-65
2022/01/25 05:24:37;;;;;;;45.47;21.03;;;;;;;-0.87;69.31;100617.28;5038306;28;20734;-65
2022/01/25 05:27:05;;;;;;;49.40;23.47;;;;;;;-1.16;69.26;100597.75;5057254;28;20231;-64
2022/01/25 05:29:32;;;;;;;47.93;23.97;;;;;;;-1.46;70.10;100566.91;5065038;28;20234;-65
2022/01/25 05:31:59;;;;;;;80.37;28.77;;;;;;;-0.94;69.03;100620.31;5068591;28;20774;-65
2022/01/25 05:34:27;;;;;;;96.43;41.27;;;;;;;-0.95;68.81;100597.66;5067692;28;20221;-64
2022/01/25 05:36:54;;;;;;;105.90;39.73;;;;;;;-0.45;68.37;100643.19;5068136;28;20231;-65
2022/01/25 05:39:27;;;;;;;85.60;45.63;;;;;;;-1.30;69.94;100587.09;5067198;28;20231;-65
2022/01/25 05:41:57;;;;;;;118.23;45.50;;;;;;;-1.17;70.11;100613.53;5068049;28;20226;-64
2022/01/25 05:47:24;;;;;;;110.80;29.63;;;;;;;-0.69;67.55;100593.72;5038849;28;20235;-65
2022/01/25 05:49:51;;;;;;;114.70;26.07;;;;;;;0.21;65.79;100634.44;5068330;28;20230;-64
2022/01/25 05:52:18;;;;;;;171.07;29.27;;;;;;;0.31;65.23;100633.00;5068052;28;20716;-64
2022/01/25 05:54:45;;;;;;;146.07;26.47;;;;;;;-0.60;66.86;100593.22;5067583;28;20225;-64
2022/01/25 05:57:12;;;;;;;128.53;28.10;;;;;;;-1.14;68.91;100601.16;5067326;28;20222;-64
2022/01/25 05:59:39;;;;;;;130.90;27.27;;;;;;;-0.01;65.99;100638.22;5067208;28;20264;-65
2022/01/25 06:02:06;;;;;;;147.30;27.43;;;;;;;0.14;65.40;100647.06;5067082;28;20612;-64
2022/01/25 06:04:34;;;;;;;148.73;23.17;;;;;;;-2.72;71.30;100429.03;5067158;28;20230;-64
2022/01/25 06:07:02;;;;;;;76.63;20.67;;;;;;;-0.30;67.20;100650.25;5067322;28;20227;-65
2022/01/25 06:09:29;;;;;;;48.93;18.50;;;;;;;-1.79;71.22;100566.75;5066563;28;20228;-64
2022/01/25 06:11:56;;;;;;;94.77;25.43;;;;;;;0.03;64.86;100631.91;5067867;28;20228;-64
2022/01/25 06:14:23;;;;;;;43.00;19.67;;;;;;;0.51;61.73;100607.44;5066706;28;20220;-64
2022/01/25 06:16:50;;;;;;;45.57;19.33;;;;;;;0.60;60.93;100593.78;5075807;28;20797;-64
2022/01/25 06:19:17;;;;;;;79.73;20.70;;;;;;;0.81;60.04;100595.19;5066717;28;20238;-64
2022/01/25 06:21:44;;;;;;;41.00;20.07;;;;;;;0.76;60.54;100613.00;5067774;28;20241;-64
2022/01/25 06:24:10;;;;;;;57.70;22.10;;;;;;;1.13;59.35;100600.38;5066533;28;20234;-64
2022/01/25 06:26:37;;;;;;;68.63;24.07;;;;;;;0.80;60.08;100609.25;5067104;28;20602;-65
2022/01/25 06:29:04;;;;;;;60.17;21.53;;;;;;;0.92;59.75;100612.97;5066849;28;20231;-64
2022/01/25 06:31:31;;;;;;;42.37;22.60;;;;;;;0.73;60.67;100621.06;5066802;28;20228;-65
2022/01/25 06:33:59;;;;;;;48.47;22.83;;;;;;;-1.10;65.20;100552.94;5067198;28;20226;-64
2022/01/25 06:36:26;;;;;;;35.97;22.13;;;;;;;-1.89;69.71;100531.50;5067017;28;20233;-64
2022/01/25 06:38:54;;;;;;;34.53;22.07;;;;;;;-0.86;67.27;100667.94;5067287;28;20219;-64
2022/01/25 06:41:26;;;;;;;33.50;21.37;;;;;;;0.49;63.20;100656.53;5066094;28;20223;-64
2022/01/25 06:43:53;;;;;;;29.60;20.50;;;;;;;-0.67;65.26;100616.28;5066735;28;20227;-64
2022/01/25 06:46:20;;;;;;;34.77;21.17;;;;;;;-0.25;65.65;100677.09;5048698;28;20226;-65
2022/01/25 06:48:47;;;;;;;33.37;20.80;;;;;;;0.75;61.80;100644.59;5067265;28;20227;-64
2022/01/25 06:51:14;;;;;;;32.97;21.23;;;;;;;1.29;59.65;100631.00;5065506;28;20212;-64
2022/01/25 06:53:40;;;;;;;27.73;20.57;;;;;;;1.43;59.27;100617.91;5066641;28;20235;-65
2022/01/25 06:56:07;;;;;;;36.43;24.90;;;;;;;1.65;58.73;100629.78;5066708;28;20243;-64
2022/01/25 06:58:34;;;;;;;35.43;23.10;;;;;;;1.53;58.65;100619.06;5066701;28;20219;-65
2022/01/25 07:01:02;;;;;;;36.10;24.00;;;;;;;0.88;60.57;100634.25;5067131;28;20219;-65
2022/01/25 07:03:29;;;;;;;29.07;20.50;;;;;;;0.92;61.24;100667.28;5065240;28;20823;-65
2022/01/25 07:05:56;;;;;;;29.83;20.53;;;;;;;1.07;60.62;100655.06;5066775;28;20695;-65
2022/01/25 07:08:23;;;;;;;38.57;23.03;;;;;;;-1.26;68.52;100607.81;5048617;28;20242;-65
2022/01/25 07:10:53;;;;;;;39.70;25.57;;;;;;;-0.20;65.68;100697.84;5066460;28;20258;-65
2022/01/25 07:13:20;;;;;;;42.03;26.17;;;;;;;0.75;62.34;100690.09;5066089;28;20246;-64
2022/01/25 07:15:47;;;;;;;39.93;24.40;;;;;;;0.97;61.16;100678.38;5066298;28;20237;-64
2022/01/25 07:18:15;;;;;;;40.00;23.30;;;;;;;1.51;59.73;100660.38;5067086;28;20718;-64
2022/01/25 07:20:42;;;;;;;41.27;22.03;;;;;;;1.65;59.45;100651.69;5071490;28;20726;-64
2022/01/25 07:23:12;;;;;;;38.60;21.80;;;;;;;1.69;59.48;100652.34;5065343;28;20229;-65
2022/01/25 07:25:39;;;;;;;33.70;20.20;;;;;;;1.02;61.07;100660.56;5070918;28;20286;-64
2022/01/25 07:28:06;;;;;;;29.33;18.87;;;;;;;1.05;61.40;100667.44;5070322;28;20224;-64
2022/01/25 07:30:33;;;;;;;31.13;20.03;;;;;;;-0.09;65.25;100664.00;5066406;28;20229;-64
2022/01/25 07:33:17;;;;;;;63.03;31.60;;;;;;;-1.87;72.29;100661.28;5059354;28;20234;-65
2022/01/25 07:35:53;;;;;;;58.60;33.17;;;;;;;-2.99;74.90;100525.94;5064907;28;20218;-64
2022/01/25 07:38:32;;;;;;;41.73;24.10;;;;;;;-1.29;70.56;100722.31;5066224;28;20223;-65
2022/01/25 07:41:09;;;;;;;38.47;21.80;;;;;;;-1.27;70.12;100671.59;5048328;28;20226;-65
2022/01/25 07:43:36;;;;;;;36.47;22.17;;;;;;;-1.11;71.33;100708.34;5066120;28;20238;-65
2022/01/25 07:46:09;;;;;;;39.37;22.97;;;;;;;-0.28;68.26;100713.94;5070092;28;20227;-65
2022/01/25 07:48:39;;;;;;;56.77;32.73;;;;;;;0.00;66.45;100671.41;5070187;28;20610;-65
2022/01/25 07:51:09;;;;;;;48.47;29.17;;;;;;;0.31;66.15;100695.16;5069804;28;20236;-65
2022/01/25 07:53:37;;;;;;;50.67;26.47;;;;;;;0.78;63.95;100665.44;5072667;28;20784;-65
2022/01/25 07:56:04;;;;;;;41.90;24.13;;;;;;;-0.10;67.39;100688.56;5070180;28;20520;-65
2022/01/25 07:58:31;;;;;;;46.87;25.40;;;;;;;0.25;65.71;100680.56;5069572;28;20647;-64
2022/01/25 08:00:59;;;;;;;53.77;33.20;;;;;;;-0.34;68.10;100680.16;5072513;28;20230;-65
2022/01/25 08:03:26;;;;;;;42.33;26.40;;;;;;;-0.54;68.32;100662.81;5076763;28;20234;-65
2022/01/25 08:05:57;;;;;;;47.23;27.93;;;;;;;-0.69;69.20;100667.94;5068712;28;20655;-64
2022/01/25 08:08:41;;;;;;;39.43;26.13;;;;;;;0.19;67.71;100700.13;5058768;28;20225;-65
2022/01/25 08:11:11;;;;;;;42.20;27.83;;;;;;;0.93;65.00;100669.00;5077267;28;20223;-64
2022/01/25 08:14:13;;;;;;;46.00;29.70;;;;;;;0.14;67.70;100685.56;5054613;28;20229;-65
2022/01/25 08:16:49;;;;;;;42.07;26.87;;;;;;;0.20;67.79;100698.34;5069286;28;20224;-65
2022/01/25 08:19:28;;;;;;;39.13;24.57;;;;;;;0.52;66.18;100683.50;5069307;28;21001;-64
2022/01/25 08:21:59;;;;;;;34.77;23.43;;;;;;;0.07;67.00;100670.16;5072516;28;20215;-65
2022/01/25 08:24:48;;;;;;;32.97;24.20;;;;;;;1.23;64.69;100669.03;5067655;28;20235;-65
2022/01/25 08:27:22;;;;;;;39.50;26.10;;;;;;;1.06;64.78;100662.13;5068848;28;20235;-65
2022/01/25 08:29:52;;;;;;;43.13;28.30;;;;;;;0.02;68.71;100708.88;5059499;28;20307;-64
2022/01/25 08:32:33;;;;;;;44.30;27.63;;;;;;;1.00;64.95;100667.72;5045626;28;20228;-65
2022/01/25 08:35:10;;;;;;;37.37;25.20;;;;;;;-1.58;72.61;100601.53;5068851;28;20227;-65
2022/01/25 08:38:03;;;;;;;34.50;24.10;;;;;;;-1.49;74.64;100676.97;5021327;28;20231;-64
2022/01/25 08:40:48;;;;;;;34.17;23.60;;;;;;;0.22;68.24;100689.47;5068840;28;20237;-65
2022/01/25 08:43:35;;;;;;;34.20;22.47;;;;;;;-1.43;74.38;100675.84;5068447;28;20233;-65
2022/01/25 08:46:12;;;;;;;34.53;22.80;;;;;;;0.35;69.34;100709.81;5069454;28;20223;-65
2022/01/25 08:48:49;;;;;;;31.13;21.27;;;;;;;0.03;67.07;100633.66;5069112;28;20236;-65
2022/01/25 08:51:33;;;;;;;32.37;21.77;;;;;;;-0.64;73.18;100724.50;5024310;28;22114;-64
2022/01/25 08:54:16;;;;;;;37.87;22.57;;;;;;;0.36;69.17;100701.84;5005391;28;20229;-65
2022/01/25 08:56:57;;;;;;;45.60;24.43;;;;;;;-0.11;69.36;100671.94;4975722;28;20236;-65
2022/01/25 08:59:38;;;;;;;37.77;22.73;;;;;;;0.74;68.16;100688.41;4998111;28;20266;-64
2022/01/25 09:02:05;;;;;;;48.03;25.23;;;;;;;0.43;68.58;100681.38;5026383;28;20223;-65
2022/01/25 09:04:32;;;;;;;69.40;27.23;;;;;;;-0.33;69.45;100647.78;5025834;28;20229;-65
2022/01/25 09:06:59;;;;;;;55.03;26.60;;;;;;;0.87;67.29;100666.72;5025826;28;20618;-65
2022/01/25 09:09:26;;;;;;;60.57;26.10;;;;;;;-0.23;69.50;100659.50;5024954;28;20242;-65
2022/01/25 09:11:53;;;;;;;97.23;26.03;;;;;;;0.43;67.14;100663.00;5011876;28;20703;-65
2022/01/25 09:14:19;;;;;;;92.63;29.63;;;;;;;-1.15;71.17;100625.66;5006286;28;20232;-65
2022/01/25 09:16:46;;;;;;;71.73;28.10;;;;;;;-0.29;71.76;100727.97;5023943;28;20230;-65
2022/01/25 09:19:14;;;;;;;93.13;29.27;;;;;;;-0.36;70.52;100682.03;5025851;28;20238;-65
2022/01/25 09:21:41;;;;;;;66.27;28.87;;;;;;;0.11;69.83;100717.22;5033984;28;20232;-65
2022/01/25 09:24:10;;;;;;;61.20;27.17;;;;;;;0.51;67.56;100694.94;5067657;28;20228;-64
2022/01/25 09:26:37;;;;;;;61.47;26.17;;;;;;;0.50;67.35;100714.22;5068422;28;20234;-65
2022/01/25 09:29:04;;;;;;;90.20;26.00;;;;;;;-0.51;68.87;100660.06;5067770;28;20254;-65
2022/01/25 09:31:31;;;;;;;60.83;25.10;;;;;;;-0.64;72.94;100717.50;5068626;28;20729;-65
2022/01/25 09:33:59;;;;;;;75.63;26.77;;;;;;;-1.04;71.84;100677.53;5067812;28;20243;-64
2022/01/25 09:36:26;;;;;;;106.33;24.47;;;;;;;-2.08;72.58;100570.72;5068080;28;20238;-64
2022/01/25 09:38:55;;;;;;;94.33;24.03;;;;;;;-1.11;71.86;100692.66;5067686;28;20235;-65
2022/01/25 09:41:23;;;;;;;102.93;23.57;;;;;;;-1.48;74.19;100690.91;5067827;28;20226;-65
2022/01/25 09:43:50;;;;;;;96.70;23.40;;;;;;;-0.90;71.04;100688.16;5067735;28;20231;-65
2022/01/25 09:46:17;;;;;;;71.23;24.30;;;;;;;0.03;68.23;100704.47;5067747;28;20226;-65
2022/01/25 09:48:44;;;;;;;71.77;26.10;;;;;;;0.21;67.33;100694.81;5068466;28;20231;-65
2022/01/25 09:51:11;;;;;;;55.37;25.70;;;;;;;-0.36;69.05;100698.59;5066800;28;20235;-65
2022/01/25 09:53:40;;;;;;;63.37;29.93;;;;;;;-0.11;68.21;100706.03;5067338;28;20234;-65
2022/01/25 09:56:07;;;;;;;54.67;27.90;;;;;;;-0.29;68.13;100704.38;5067604;28;20220;-65
2022/01/25 09:58:36;;;;;;;47.93;27.83;;;;;;;0.05;66.09;100700.88;5067778;28;20223;-65
2022/01/25 10:01:05;;;;;;;54.17;27.80;;;;;;;-1.08;70.49;100728.31;5067767;28;20228;-65
2022/01/25 10:03:39;;;;;;;52.53;26.60;;;;;;;-1.95;72.56;100689.53;5048463;28;20655;-65
2022/01/25 10:06:15;;;;;;;51.40;26.27;;;;;;;-3.91;77.27;100490.63;5068100;28;20498;-65
2022/01/25 10:08:44;;;;;;;49.10;26.13;;;;;;;-3.42;77.94;100600.78;5068997;28;20241;-64
2022/01/25 10:11:14;;;;;;;47.43;25.23;;;;;;;-1.11;71.52;100734.53;5049496;28;20233;-65
2022/01/25 10:13:51;;;;;;;52.90;27.97;;;;;;;-0.09;67.80;100702.50;5066814;28;20234;-65
2022/01/25 10:16:20;;;;;;;55.27;27.70;;;;;;;-0.92;68.49;100674.28;5067391;28;20686;-65
2022/01/25 10:18:59;;;;;;;48.23;28.63;;;;;;;-0.61;70.22;100737.44;5066970;28;20584;-65
2022/01/25 10:21:42;;;;;;;58.57;28.70;;;;;;;-1.01;70.68;100710.56;5067049;28;20223;-64
2022/01/25 10:24:14;;;;;;;58.53;30.10;;;;;;;-0.54;68.91;100720.47;5059976;28;20215;-65
2022/01/25 10:27:00;;;;;;;64.67;26.67;;;;;;;-0.16;66.91;100701.97;5049633;28;20233;-65
2022/01/25 10:29:32;;;;;;;70.17;29.27;;;;;;;-0.22;67.29;100723.25;5066726;28;20306;-65
2022/01/25 10:32:00;;;;;;;53.67;27.87;;;;;;;-0.65;68.25;100688.75;5050012;28;20219;-64
2022/01/25 10:34:30;;;;;;;92.50;27.43;;;;;;;-0.17;66.79;100710.75;5066914;28;20225;-64
2022/01/25 10:36:59;;;;;;;58.23;28.50;;;;;;;0.36;66.45;100714.97;5049070;28;20771;-65
2022/01/25 10:39:28;;;;;;;48.33;26.53;;;;;;;-0.00;67.65;100730.88;5067001;28;20232;-64
2022/01/25 10:42:04;;;;;;;61.90;28.60;;;;;;;-1.19;69.37;100671.22;5066775;28;20649;-65
2022/01/25 10:44:50;;;;;;;69.80;26.80;;;;;;;-0.34;68.59;100724.72;5066929;28;20876;-65
2022/01/25 10:47:21;;;;;;;52.87;26.03;;;;;;;-0.27;68.91;100726.13;5066162;28;20227;-65
2022/01/25 10:49:50;;;;;;;70.70;25.27;;;;;;;-2.01;72.00;100632.28;5067506;28;20235;-65
2022/01/25 10:52:24;;;;;;;66.10;27.23;;;;;;;-1.52;70.16;100657.94;5066831;28;20706;-64
2022/01/25 10:54:52;;;;;;;84.37;25.50;;;;;;;-0.87;71.52;100740.41;5064838;28;20570;-65
2022/01/25 10:57:20;;;;;;;61.93;26.50;;;;;;;-1.13;73.12;100743.38;5069758;28;20707;-65
2022/01/25 10:59:59;;;;;;;102.57;26.77;;;;;;;-1.07;72.79;100723.00;5068778;28;20231;-65
2022/01/25 11:04:06;;;;;;;73.87;24.57;;;;;;;-1.38;75.07;100741.91;5053886;28;20583;-65
2022/01/25 11:06:34;;;;;;;54.10;25.80;;;;;;;-1.08;74.44;100747.50;5007737;28;20225;-64
2022/01/25 11:09:05;;;;;;;95.53;27.43;;;;;;;-0.74;72.80;100727.56;5018415;28;20235;-64
2022/01/25 11:11:38;;;;;;;52.40;25.80;;;;;;;-0.16;69.85;100699.34;5013993;28;20706;-64
2022/01/25 11:16:53;;;;;;;93.70;27.27;;;;;;;-0.26;70.73;100708.63;5043424;28;20918;-67
2022/01/25 11:19:21;;;;;;;72.37;25.27;;;;;;;-2.10;75.18;100644.00;5043877;28;20234;-66
2022/01/25 11:21:50;;;;;;;71.50;27.70;;;;;;;-0.82;74.46;100755.06;5042767;28;20228;-66
2022/01/25 11:24:19;;;;;;;69.87;26.67;;;;;;;0.22;68.79;100688.63;5043376;28;20234;-66
2022/01/25 11:26:49;;;;;;;56.23;26.57;;;;;;;-0.17;71.08;100719.50;5043856;28;20253;-66
2022/01/25 11:29:17;;;;;;;59.90;25.97;;;;;;;0.67;68.15;100681.78;5043453;28;20774;-65
2022/01/25 11:31:55;;;;;;;55.00;25.40;;;;;;;-0.27;71.63;100715.66;5043651;28;20647;-66
2022/01/25 11:34:26;;;;;;;67.90;27.37;;;;;;;-0.77;72.33;100685.78;5043779;28;20230;-65
2022/01/25 11:36:57;;;;;;;44.87;25.10;;;;;;;0.37;68.81;100679.06;5043942;28;20596;-65
2022/01/25 11:39:26;;;;;;;57.47;25.30;;;;;;;0.57;68.90;100664.84;5036604;28;20245;-65
2022/01/25 11:42:06;;;;;;;59.53;27.50;;;;;;;0.86;67.67;100675.50;5015665;28;20226;-65
2022/01/25 11:44:34;;;;;;;61.60;30.20;;;;;;;0.40;68.24;100664.03;5021167;28;20757;-65
2022/01/25 11:47:16;;;;;;;59.00;30.70;;;;;;;1.09;66.73;100671.59;5020484;28;20220;-66
2022/01/25 11:49:58;;;;;;;57.93;25.13;;;;;;;-2.96;78.39;100558.91;5040597;28;20776;-65
2022/01/25 11:52:28;;;;;;;56.00;26.80;;;;;;;-0.26;72.84;100722.56;5028097;28;20226;-65
2022/01/25 11:55:17;;;;;;;66.60;27.43;;;;;;;-0.16;71.56;100699.34;5019991;28;20256;-65
2022/01/25 11:57:46;;;;;;;59.23;28.13;;;;;;;0.54;68.63;100662.38;5023247;28;21776;-66
2022/01/25 12:00:14;;;;;;;55.67;28.40;;;;;;;0.26;68.66;100654.25;5023136;28;20229;-66
2022/01/25 12:02:46;;;;;;;63.47;29.50;;;;;;;0.75;67.21;100628.84;5023554;28;20618;-65
2022/01/25 12:05:18;;;;;;;63.53;29.80;;;;;;;0.46;67.73;100628.69;5022712;28;20226;-65
2022/01/25 12:08:16;;;;;;;61.50;28.63;;;;;;;1.28;67.54;100647.69;5018143;28;20267;-66
2022/01/25 12:10:45;;;;;;;57.07;29.43;;;;;;;1.01;66.92;100632.63;5018582;28;20757;-66
2022/01/25 12:13:25;;;;;;;61.53;30.70;;;;;;;-0.19;71.99;100697.75;5020966;28;20639;-65
2022/01/25 12:16:23;;;;;;;66.67;30.10;;;;;;;-0.26;69.37;100648.31;5020890;28;20244;-66
2022/01/25 12:18:58;;;;;;;61.73;29.40;;;;;;;0.27;70.42;100694.47;5028461;28;20591;-66
2022/01/25 12:21:53;;;;;;;52.20;29.73;;;;;;;-0.13;72.54;100704.44;5029845;28;20235;-66
2022/01/25 12:24:40;;;;;;;59.53;32.80;;;;;;;-0.76;73.26;100687.50;5027874;28;20631;-65
2022/01/25 12:29:44;;;;;;;54.13;30.70;;;;;;;0.37;68.32;100637.94;5029089;28;20623;-65
2022/01/25 12:32:18;;;;;;;52.03;29.80;;;;;;;0.29;69.02;100663.75;5029693;28;20222;-66
2022/01/25 12:35:03;;;;;;;54.97;30.93;;;;;;;0.96;66.43;100632.00;5027744;28;20226;-66
2022/01/25 12:37:42;;;;;;;51.73;28.90;;;;;;;0.47;67.76;100627.78;5014403;28;21678;-66
2022/01/25 12:40:25;;;;;;;58.03;32.50;;;;;;;0.31;68.92;100645.28;5008888;28;20238;-66
2022/01/25 12:42:54;;;;;;;54.50;30.57;;;;;;;1.05;67.05;100635.91;5008608;28;20230;-65
2022/01/25 12:45:24;;;;;;;53.87;29.30;;;;;;;1.33;65.64;100620.22;5009102;28;20224;-65
2022/01/25 12:48:06;;;;;;;52.10;30.43;;;;;;;0.98;66.89;100617.88;5011393;28;20224;-65
2022/01/25 12:50:36;;;;;;;45.90;28.13;;;;;;;-0.62;73.15;100697.28;5029091;28;20231;-65
2022/01/25 12:53:05;;;;;;;47.60;27.70;;;;;;;0.36;69.46;100657.22;5028843;28;20226;-65
2022/01/25 12:55:39;;;;;;;51.20;29.90;;;;;;;1.23;67.00;100631.34;5029292;28;20224;-65
2022/01/25 12:58:07;;;;;;;47.63;27.57;;;;;;;1.84;64.16;100598.78;5029300;28;20234;-65
2022/01/25 13:00:38;;;;;;;48.47;29.10;;;;;;;1.49;64.90;100587.78;5029186;28;20230;-65
2022/01/25 13:03:30;;;;;;;49.30;28.37;;;;;;;1.66;64.06;100598.13;5028029;28;20230;-66
2022/01/25 13:06:21;;;;;;;46.87;26.37;;;;;;;1.79;63.13;100571.91;5028961;28;20265;-65
2022/01/25 13:08:56;;;;;;;48.23;29.50;;;;;;;-0.49;69.78;100611.03;5027018;28;20684;-65
2022/01/25 13:11:38;;;;;;;46.07;28.23;;;;;;;0.83;67.55;100629.25;5018603;28;20244;-65
2022/01/25 13:14:19;;;;;;;48.33;28.77;;;;;;;0.31;68.22;100633.00;5008753;28;20234;-65
2022/01/25 13:16:51;;;;;;;53.27;31.43;;;;;;;1.34;66.46;100624.53;5026944;28;20245;-65
2022/01/25 13:19:45;;;;;;;59.27;28.20;;;;;;;1.24;65.92;100604.16;5028104;28;20232;-65
2022/01/25 13:22:17;;;;;;;45.57;29.17;;;;;;;0.77;67.57;100625.19;5028915;28;20829;-65
2022/01/25 13:25:11;;;;;;;45.93;28.40;;;;;;;1.49;64.92;100591.25;5027541;28;20258;-65
2022/01/25 13:27:51;;;;;;;47.90;28.27;;;;;;;1.80;64.86;100604.31;5027921;28;20601;-65
2022/01/25 13:33:11;;;;;;;48.63;29.80;;;;;;;2.11;63.21;100582.22;5028091;28;20244;-65
2022/01/25 13:35:42;;;;;;;50.90;29.20;;;;;;;1.20;65.58;100585.94;5028111;28;20228;-66
2022/01/25 13:38:23;;;;;;;45.37;29.00;;;;;;;2.20;63.53;100592.16;5028249;28;20606;-66
2022/01/25 13:46:37;;;;;;;46.93;28.10;;;;;;;1.99;63.03;100567.19;5008066;28;20242;-66
2022/01/25 13:49:06;;;;;;;49.07;30.40;;;;;;;0.75;66.94;100603.41;5020157;28;20723;-65
2022/01/25 13:51:49;;;;;;;45.83;28.50;;;;;;;1.89;65.05;100606.41;5028483;28;20226;-66
2022/01/25 13:54:23;;;;;;;46.90;29.83;;;;;;;1.29;65.78;100597.66;5025981;28;20235;-65
2022/01/25 13:56:50;;;;;;;49.33;30.23;;;;;;;2.16;63.69;100581.91;5028094;28;20235;-66
2022/01/25 13:59:21;;;;;;;45.40;28.00;;;;;;;2.22;63.69;100594.69;5004620;28;20701;-65
2022/01/25 14:01:49;;;;;;;53.70;30.30;;;;;;;2.66;61.33;100578.69;5000289;28;20242;-66
2022/01/25 14:04:27;;;;;;;44.43;29.43;;;;;;;2.12;63.21;100579.50;5000528;28;20235;-65
2022/01/25 14:06:57;;;;;;;54.83;31.43;;;;;;;2.66;61.91;100589.22;5007734;28;20227;-65